KLM342 LIPZ-LIEO
Flight info
| Callsign | KLM342 |
|---|---|
| Flight time | 1h 4m |
| Altitude | 35000 |
| Route | CHI DCT GIPUK DCT DEDOM Z254 BATOX |
| Aircraft | B738/M-SDE2E3FGHIR/S |
Departure
| Time | 2026-05-05 14:04 |
|---|---|
| Airport | Venice Marco Polo Airport (LIPZ) |
Arrival
| Time | 2026-05-05 15:08 |
|---|---|
| Airport | Olbia Costa Smeralda Airport (LIEO) |
| Time | Latitude | Longitude | Altitude | Speed | Heading |
|---|---|---|---|---|---|
| 2026-05-05 13:48 | 45.50585 | 12.34164 | 19 ft | 0 kts | 240° |
| 2026-05-05 13:55 | 45.50585 | 12.34165 | 18 ft | 1 kts | 240° |
| 2026-05-05 13:55 | 45.50592 | 12.34180 | 18 ft | 2 kts | 240° |
| 2026-05-05 13:56 | 45.50601 | 12.34203 | 18 ft | 3 kts | 234° |
| 2026-05-05 13:56 | 45.50616 | 12.34222 | 18 ft | 3 kts | 211° |
| 2026-05-05 13:56 | 45.50635 | 12.34232 | 18 ft | 3 kts | 187° |
| 2026-05-05 13:56 | 45.50655 | 12.34230 | 18 ft | 3 kts | 164° |
| 2026-05-05 13:57 | 45.50669 | 12.34221 | 18 ft | 0 kts | 150° |
| 2026-05-05 13:58 | 45.50669 | 12.34222 | 18 ft | 0 kts | 150° |
| 2026-05-05 13:58 | 45.50667 | 12.34223 | 18 ft | 2 kts | 147° |
| 2026-05-05 13:58 | 45.50644 | 12.34257 | 18 ft | 7 kts | 131° |
| 2026-05-05 13:58 | 45.50589 | 12.34312 | 18 ft | 12 kts | 163° |
| 2026-05-05 13:59 | 45.50383 | 12.34337 | 18 ft | 17 kts | 173° |
| 2026-05-05 13:59 | 45.50292 | 12.34352 | 18 ft | 13 kts | 183° |
| 2026-05-05 14:00 | 45.50130 | 12.34191 | 18 ft | 14 kts | 224° |
| 2026-05-05 14:00 | 45.50082 | 12.34125 | 18 ft | 15 kts | 224° |
| 2026-05-05 14:00 | 45.49970 | 12.33973 | 18 ft | 18 kts | 223° |
| 2026-05-05 14:00 | 45.49869 | 12.33843 | 18 ft | 21 kts | 220° |
| 2026-05-05 14:01 | 45.49764 | 12.33709 | 18 ft | 18 kts | 223° |
| 2026-05-05 14:01 | 45.49683 | 12.33599 | 18 ft | 16 kts | 224° |
| 2026-05-05 14:01 | 45.49603 | 12.33501 | 18 ft | 11 kts | 191° |
| 2026-05-05 14:01 | 45.49544 | 12.33560 | 18 ft | 12 kts | 137° |
| 2026-05-05 14:02 | 45.49479 | 12.33649 | 18 ft | 14 kts | 133° |
| 2026-05-05 14:02 | 45.49427 | 12.33737 | 18 ft | 10 kts | 122° |
| 2026-05-05 14:02 | 45.49445 | 12.33809 | 19 ft | 0 kts | 43° |
| 2026-05-05 14:02 | 45.49446 | 12.33810 | 18 ft | 2 kts | 43° |
| 2026-05-05 14:03 | 45.49628 | 12.34049 | 19 ft | 78 kts | 41° |
| 2026-05-05 14:03 | 45.50238 | 12.34835 | 20 ft | 156 kts | 43° |
| 2026-05-05 14:03 | 45.51190 | 12.36044 | 163 ft | 186 kts | 43° |
| 2026-05-05 14:03 | 45.52126 | 12.37197 | 596 ft | 176 kts | 42° |
| 2026-05-05 14:04 | 45.53051 | 12.38398 | 1278 ft | 187 kts | 48° |
| 2026-05-05 14:04 | 45.53619 | 12.40083 | 1838 ft | 194 kts | 79° |
| 2026-05-05 14:04 | 45.53534 | 12.42025 | 2454 ft | 201 kts | 98° |
| 2026-05-05 14:04 | 45.53297 | 12.44071 | 3093 ft | 218 kts | 99° |
| 2026-05-05 14:05 | 45.53069 | 12.46300 | 3744 ft | 234 kts | 98° |
| 2026-05-05 14:05 | 45.52833 | 12.48637 | 4382 ft | 242 kts | 99° |
| 2026-05-05 14:05 | 45.52436 | 12.51019 | 4959 ft | 256 kts | 114° |
| 2026-05-05 14:05 | 45.51327 | 12.53038 | 5577 ft | 263 kts | 141° |
| 2026-05-05 14:06 | 45.49670 | 12.54162 | 6175 ft | 267 kts | 168° |
| 2026-05-05 14:06 | 45.47855 | 12.54076 | 6784 ft | 266 kts | 193° |
| 2026-05-05 14:06 | 45.46062 | 12.53350 | 7419 ft | 269 kts | 197° |
| 2026-05-05 14:06 | 45.44244 | 12.52697 | 7995 ft | 270 kts | 193° |
| 2026-05-05 14:07 | 45.42396 | 12.52173 | 8583 ft | 273 kts | 191° |
| 2026-05-05 14:07 | 45.40513 | 12.51708 | 9165 ft | 274 kts | 191° |
| 2026-05-05 14:07 | 45.38662 | 12.51263 | 9722 ft | 272 kts | 191° |
| 2026-05-05 14:07 | 45.36776 | 12.50813 | 10319 ft | 277 kts | 192° |
| 2026-05-05 14:08 | 45.34829 | 12.50350 | 10916 ft | 290 kts | 192° |
| 2026-05-05 14:08 | 45.32842 | 12.49581 | 11488 ft | 302 kts | 205° |
| 2026-05-05 14:08 | 45.30958 | 12.48124 | 12106 ft | 315 kts | 214° |
| 2026-05-05 14:08 | 45.29071 | 12.46468 | 12699 ft | 329 kts | 214° |
| 2026-05-05 14:09 | 45.27060 | 12.44757 | 13291 ft | 344 kts | 213° |
| 2026-05-05 14:09 | 45.24972 | 12.43009 | 13876 ft | 353 kts | 213° |
| 2026-05-05 14:09 | 45.22837 | 12.41226 | 14457 ft | 359 kts | 212° |
| 2026-05-05 14:09 | 45.20678 | 12.39425 | 15019 ft | 361 kts | 212° |
| 2026-05-05 14:10 | 45.18505 | 12.37614 | 15585 ft | 363 kts | 212° |
| 2026-05-05 14:10 | 45.16313 | 12.35789 | 16153 ft | 367 kts | 212° |
| 2026-05-05 14:10 | 45.14108 | 12.33956 | 16716 ft | 369 kts | 212° |
| 2026-05-05 14:10 | 45.12994 | 12.33030 | 17000 ft | 370 kts | 212° |
| 2026-05-05 14:11 | 45.10759 | 12.31173 | 17568 ft | 374 kts | 212° |
| 2026-05-05 14:11 | 45.08506 | 12.29305 | 18127 ft | 376 kts | 212° |
| 2026-05-05 14:11 | 45.06245 | 12.27500 | 18672 ft | 381 kts | 208° |
| 2026-05-05 14:11 | 45.03820 | 12.25939 | 19227 ft | 385 kts | 206° |
| 2026-05-05 14:12 | 45.01371 | 12.24363 | 19636 ft | 388 kts | 206° |
| 2026-05-05 14:12 | 44.98925 | 12.22761 | 20065 ft | 389 kts | 206° |
| 2026-05-05 14:12 | 44.96454 | 12.21143 | 20489 ft | 392 kts | 206° |
| 2026-05-05 14:12 | 44.93962 | 12.19509 | 20920 ft | 395 kts | 206° |
| 2026-05-05 14:13 | 44.91460 | 12.17871 | 21344 ft | 398 kts | 206° |
| 2026-05-05 14:13 | 44.88939 | 12.16222 | 21772 ft | 401 kts | 206° |
| 2026-05-05 14:13 | 44.86396 | 12.14559 | 22200 ft | 403 kts | 206° |
| 2026-05-05 14:13 | 44.83837 | 12.12888 | 22628 ft | 406 kts | 206° |
| 2026-05-05 14:14 | 44.81268 | 12.11212 | 23054 ft | 409 kts | 206° |
| 2026-05-05 14:14 | 44.78671 | 12.09521 | 23484 ft | 412 kts | 206° |
| 2026-05-05 14:14 | 44.76098 | 12.07845 | 23906 ft | 414 kts | 206° |
| 2026-05-05 14:14 | 44.73469 | 12.06136 | 24335 ft | 417 kts | 206° |
| 2026-05-05 14:15 | 44.70827 | 12.04419 | 24747 ft | 420 kts | 206° |
| 2026-05-05 14:15 | 44.68166 | 12.02691 | 25042 ft | 423 kts | 206° |
| 2026-05-05 14:15 | 44.65483 | 12.00952 | 25326 ft | 423 kts | 206° |
| 2026-05-05 14:15 | 44.62801 | 11.99215 | 25612 ft | 425 kts | 207° |
| 2026-05-05 14:16 | 44.60116 | 11.97478 | 25897 ft | 426 kts | 207° |
| 2026-05-05 14:16 | 44.57426 | 11.95735 | 26180 ft | 427 kts | 207° |
| 2026-05-05 14:16 | 44.55638 | 11.94576 | 26370 ft | 428 kts | 207° |
| 2026-05-05 14:16 | 44.52927 | 11.92819 | 26648 ft | 427 kts | 207° |
| 2026-05-05 14:17 | 44.49349 | 11.90504 | 27022 ft | 427 kts | 207° |
| 2026-05-05 14:17 | 44.46656 | 11.88763 | 27290 ft | 426 kts | 207° |
| 2026-05-05 14:17 | 44.44874 | 11.87612 | 27472 ft | 425 kts | 207° |
| 2026-05-05 14:17 | 44.42185 | 11.85878 | 27774 ft | 424 kts | 207° |
| 2026-05-05 14:18 | 44.39495 | 11.84144 | 28090 ft | 424 kts | 207° |
| 2026-05-05 14:18 | 44.36814 | 11.82416 | 28420 ft | 423 kts | 207° |
| 2026-05-05 14:18 | 44.34144 | 11.80699 | 28737 ft | 422 kts | 207° |
| 2026-05-05 14:18 | 44.31479 | 11.78986 | 29064 ft | 421 kts | 208° |
| 2026-05-05 14:19 | 44.28815 | 11.77276 | 29386 ft | 420 kts | 208° |
| 2026-05-05 14:19 | 44.26198 | 11.75598 | 29708 ft | 419 kts | 208° |
| 2026-05-05 14:19 | 44.23551 | 11.73902 | 30028 ft | 418 kts | 208° |
| 2026-05-05 14:19 | 44.20905 | 11.72208 | 30352 ft | 417 kts | 208° |
| 2026-05-05 14:20 | 44.18265 | 11.70519 | 30676 ft | 416 kts | 208° |
| 2026-05-05 14:20 | 44.15632 | 11.68837 | 30999 ft | 415 kts | 208° |
| 2026-05-05 14:20 | 44.13013 | 11.67166 | 31322 ft | 413 kts | 208° |
| 2026-05-05 14:20 | 44.10407 | 11.65505 | 31641 ft | 412 kts | 208° |
| 2026-05-05 14:21 | 44.07803 | 11.63846 | 31964 ft | 411 kts | 208° |
| 2026-05-05 14:21 | 44.05207 | 11.62194 | 32284 ft | 409 kts | 209° |
| 2026-05-05 14:21 | 44.02647 | 11.60567 | 32603 ft | 408 kts | 209° |
| 2026-05-05 14:21 | 44.00038 | 11.58910 | 32926 ft | 407 kts | 209° |
| 2026-05-05 14:22 | 43.97464 | 11.57276 | 33248 ft | 406 kts | 209° |
| 2026-05-05 14:22 | 43.94927 | 11.55669 | 33561 ft | 404 kts | 209° |
| 2026-05-05 14:22 | 43.92368 | 11.54049 | 33883 ft | 403 kts | 209° |
| 2026-05-05 14:22 | 43.89820 | 11.52437 | 34202 ft | 401 kts | 210° |
| 2026-05-05 14:23 | 43.87288 | 11.50836 | 34515 ft | 401 kts | 210° |
| 2026-05-05 14:23 | 43.84746 | 11.49231 | 34837 ft | 401 kts | 209° |
| 2026-05-05 14:23 | 43.82193 | 11.47620 | 34983 ft | 402 kts | 209° |
| 2026-05-05 14:23 | 43.79626 | 11.46002 | 34999 ft | 408 kts | 209° |
| 2026-05-05 14:24 | 43.74411 | 11.42720 | 34991 ft | 416 kts | 209° |
| 2026-05-05 14:24 | 43.69141 | 11.39409 | 34993 ft | 416 kts | 209° |
| 2026-05-05 14:25 | 43.63873 | 11.36107 | 34994 ft | 416 kts | 209° |
| 2026-05-05 14:25 | 43.58613 | 11.32814 | 34994 ft | 415 kts | 209° |
| 2026-05-05 14:26 | 43.53348 | 11.29525 | 34995 ft | 415 kts | 209° |
| 2026-05-05 14:26 | 43.48092 | 11.26250 | 34995 ft | 414 kts | 209° |
| 2026-05-05 14:27 | 43.42880 | 11.23007 | 34997 ft | 414 kts | 209° |
| 2026-05-05 14:27 | 43.37631 | 11.19747 | 34996 ft | 414 kts | 209° |
| 2026-05-05 14:28 | 43.32378 | 11.16492 | 34998 ft | 414 kts | 209° |
| 2026-05-05 14:28 | 43.27127 | 11.13243 | 35000 ft | 413 kts | 208° |
| 2026-05-05 14:29 | 43.21893 | 11.10011 | 35001 ft | 412 kts | 208° |
| 2026-05-05 14:29 | 43.16687 | 11.06803 | 35001 ft | 413 kts | 208° |
| 2026-05-05 14:30 | 43.11444 | 11.03578 | 34992 ft | 412 kts | 208° |
| 2026-05-05 14:30 | 43.06211 | 11.00365 | 34993 ft | 412 kts | 208° |
| 2026-05-05 14:31 | 43.00971 | 10.97154 | 34992 ft | 413 kts | 208° |
| 2026-05-05 14:31 | 42.95727 | 10.93946 | 34992 ft | 413 kts | 209° |
| 2026-05-05 14:32 | 42.90490 | 10.90749 | 34993 ft | 412 kts | 208° |
| 2026-05-05 14:32 | 42.85258 | 10.87560 | 34992 ft | 412 kts | 209° |
| 2026-05-05 14:33 | 42.80056 | 10.84396 | 34992 ft | 413 kts | 208° |
| 2026-05-05 14:33 | 42.74804 | 10.81208 | 34992 ft | 412 kts | 209° |
| 2026-05-05 14:34 | 42.69564 | 10.78032 | 35002 ft | 412 kts | 209° |
| 2026-05-05 14:34 | 42.64332 | 10.74867 | 35005 ft | 412 kts | 209° |
| 2026-05-05 14:35 | 42.59133 | 10.71729 | 35009 ft | 411 kts | 209° |
| 2026-05-05 14:35 | 42.53896 | 10.68572 | 35013 ft | 412 kts | 209° |
| 2026-05-05 14:36 | 42.48661 | 10.65424 | 35016 ft | 411 kts | 209° |
| 2026-05-05 14:36 | 42.43431 | 10.62283 | 35015 ft | 411 kts | 209° |
| 2026-05-05 14:37 | 42.38247 | 10.59176 | 35016 ft | 410 kts | 209° |
| 2026-05-05 14:37 | 42.33022 | 10.56050 | 35030 ft | 410 kts | 209° |
| 2026-05-05 14:38 | 42.27789 | 10.52925 | 35025 ft | 410 kts | 209° |
| 2026-05-05 14:38 | 42.22593 | 10.49828 | 35021 ft | 409 kts | 209° |
| 2026-05-05 14:39 | 42.17376 | 10.46724 | 35019 ft | 410 kts | 209° |
| 2026-05-05 14:39 | 42.12126 | 10.43694 | 35008 ft | 412 kts | 205° |
| 2026-05-05 14:40 | 42.06548 | 10.41729 | 35012 ft | 416 kts | 199° |
| 2026-05-05 14:40 | 42.03720 | 10.40862 | 34672 ft | 416 kts | 199° |
| 2026-05-05 14:40 | 42.00894 | 10.39989 | 34182 ft | 415 kts | 199° |
| 2026-05-05 14:41 | 41.98076 | 10.39117 | 33682 ft | 415 kts | 199° |
| 2026-05-05 14:41 | 41.95267 | 10.38249 | 33225 ft | 413 kts | 199° |
| 2026-05-05 14:41 | 41.92525 | 10.37402 | 32892 ft | 407 kts | 199° |
| 2026-05-05 14:41 | 41.89767 | 10.36550 | 32432 ft | 404 kts | 199° |
| 2026-05-05 14:42 | 41.87030 | 10.35706 | 31991 ft | 401 kts | 199° |
| 2026-05-05 14:42 | 41.84318 | 10.34870 | 31545 ft | 398 kts | 199° |
| 2026-05-05 14:42 | 41.81626 | 10.34041 | 31102 ft | 396 kts | 199° |
| 2026-05-05 14:42 | 41.78957 | 10.33219 | 30661 ft | 393 kts | 199° |
| 2026-05-05 14:43 | 41.76291 | 10.32400 | 30218 ft | 391 kts | 199° |
| 2026-05-05 14:43 | 41.73643 | 10.31586 | 29776 ft | 389 kts | 198° |
| 2026-05-05 14:43 | 41.71014 | 10.30779 | 29328 ft | 386 kts | 199° |
| 2026-05-05 14:43 | 41.68402 | 10.29978 | 28884 ft | 384 kts | 198° |
| 2026-05-05 14:44 | 41.65801 | 10.29180 | 28438 ft | 383 kts | 198° |
| 2026-05-05 14:44 | 41.63213 | 10.28389 | 27995 ft | 381 kts | 198° |
| 2026-05-05 14:44 | 41.60628 | 10.27598 | 27547 ft | 380 kts | 198° |
| 2026-05-05 14:44 | 41.58059 | 10.26812 | 27100 ft | 378 kts | 198° |
| 2026-05-05 14:45 | 41.55491 | 10.26028 | 26652 ft | 376 kts | 198° |
| 2026-05-05 14:45 | 41.52943 | 10.25250 | 26201 ft | 375 kts | 198° |
| 2026-05-05 14:45 | 41.50412 | 10.24478 | 25751 ft | 373 kts | 198° |
| 2026-05-05 14:45 | 41.47890 | 10.23710 | 25301 ft | 371 kts | 198° |
| 2026-05-05 14:46 | 41.45379 | 10.22946 | 24849 ft | 369 kts | 198° |
| 2026-05-05 14:46 | 41.42879 | 10.22185 | 24397 ft | 367 kts | 198° |
| 2026-05-05 14:46 | 41.40422 | 10.21438 | 23949 ft | 366 kts | 198° |
| 2026-05-05 14:46 | 41.37942 | 10.20686 | 23497 ft | 364 kts | 198° |
| 2026-05-05 14:47 | 41.35478 | 10.19938 | 23046 ft | 362 kts | 198° |
| 2026-05-05 14:47 | 41.33031 | 10.19195 | 22594 ft | 360 kts | 198° |
| 2026-05-05 14:47 | 41.30591 | 10.18457 | 22142 ft | 358 kts | 198° |
| 2026-05-05 14:47 | 41.28174 | 10.17725 | 21691 ft | 356 kts | 198° |
| 2026-05-05 14:48 | 41.25764 | 10.16995 | 21241 ft | 353 kts | 198° |
| 2026-05-05 14:48 | 41.23375 | 10.16273 | 20790 ft | 351 kts | 198° |
| 2026-05-05 14:48 | 41.21111 | 10.15200 | 20308 ft | 342 kts | 211° |
| 2026-05-05 14:48 | 41.19143 | 10.13492 | 19933 ft | 335 kts | 219° |
| 2026-05-05 14:49 | 41.17294 | 10.11646 | 19539 ft | 330 kts | 220° |
| 2026-05-05 14:49 | 41.15477 | 10.09821 | 19176 ft | 328 kts | 219° |
| 2026-05-05 14:49 | 41.13656 | 10.07994 | 18811 ft | 328 kts | 219° |
| 2026-05-05 14:49 | 41.11839 | 10.06176 | 18441 ft | 326 kts | 219° |
| 2026-05-05 14:50 | 41.10028 | 10.04364 | 18072 ft | 324 kts | 219° |
| 2026-05-05 14:50 | 41.08256 | 10.02591 | 17707 ft | 322 kts | 219° |
| 2026-05-05 14:50 | 41.06474 | 10.00809 | 17358 ft | 319 kts | 219° |
| 2026-05-05 14:50 | 41.04714 | 9.99053 | 17035 ft | 315 kts | 219° |
| 2026-05-05 14:51 | 41.02973 | 9.97315 | 16713 ft | 313 kts | 219° |
| 2026-05-05 14:51 | 41.01237 | 9.95583 | 16393 ft | 312 kts | 219° |
| 2026-05-05 14:51 | 40.99503 | 9.93856 | 16069 ft | 310 kts | 219° |
| 2026-05-05 14:51 | 40.97779 | 9.92138 | 15746 ft | 309 kts | 219° |
| 2026-05-05 14:52 | 40.96078 | 9.90415 | 15415 ft | 306 kts | 222° |
| 2026-05-05 14:52 | 40.94656 | 9.88339 | 15103 ft | 304 kts | 234° |
| 2026-05-05 14:52 | 40.93444 | 9.86058 | 14791 ft | 303 kts | 236° |
| 2026-05-05 14:52 | 40.92255 | 9.83757 | 14471 ft | 301 kts | 236° |
| 2026-05-05 14:53 | 40.91073 | 9.81478 | 14148 ft | 300 kts | 236° |
| 2026-05-05 14:53 | 40.89895 | 9.79208 | 13830 ft | 299 kts | 236° |
| 2026-05-05 14:53 | 40.88751 | 9.77007 | 13501 ft | 288 kts | 236° |
| 2026-05-05 14:53 | 40.87634 | 9.74862 | 13169 ft | 278 kts | 236° |
| 2026-05-05 14:54 | 40.86557 | 9.72792 | 12835 ft | 267 kts | 236° |
| 2026-05-05 14:54 | 40.85524 | 9.70812 | 12484 ft | 257 kts | 236° |
| 2026-05-05 14:54 | 40.84528 | 9.68903 | 12152 ft | 248 kts | 237° |
| 2026-05-05 14:54 | 40.83559 | 9.67048 | 11832 ft | 245 kts | 237° |
| 2026-05-05 14:55 | 40.82590 | 9.65193 | 11517 ft | 245 kts | 237° |
| 2026-05-05 14:55 | 40.81618 | 9.63334 | 11200 ft | 245 kts | 237° |
| 2026-05-05 14:55 | 40.80651 | 9.61486 | 10882 ft | 244 kts | 237° |
| 2026-05-05 14:55 | 40.79682 | 9.59635 | 10563 ft | 244 kts | 237° |
| 2026-05-05 14:56 | 40.78717 | 9.57790 | 10247 ft | 244 kts | 237° |
| 2026-05-05 14:56 | 40.77764 | 9.55967 | 9924 ft | 244 kts | 237° |
| 2026-05-05 14:56 | 40.76801 | 9.54127 | 9602 ft | 243 kts | 237° |
| 2026-05-05 14:56 | 40.75841 | 9.52293 | 9283 ft | 243 kts | 237° |
| 2026-05-05 14:57 | 40.74878 | 9.50456 | 8964 ft | 243 kts | 237° |
| 2026-05-05 14:57 | 40.73914 | 9.48620 | 8629 ft | 243 kts | 237° |
| 2026-05-05 14:57 | 40.72950 | 9.46787 | 8303 ft | 242 kts | 236° |
| 2026-05-05 14:57 | 40.71990 | 9.44961 | 7976 ft | 242 kts | 236° |
| 2026-05-05 14:58 | 40.71034 | 9.43143 | 7654 ft | 241 kts | 236° |
| 2026-05-05 14:58 | 40.70081 | 9.41333 | 7326 ft | 240 kts | 236° |
| 2026-05-05 14:58 | 40.69129 | 9.39528 | 6995 ft | 240 kts | 236° |
| 2026-05-05 14:58 | 40.68185 | 9.37737 | 6714 ft | 235 kts | 236° |
| 2026-05-05 14:59 | 40.67274 | 9.36009 | 6410 ft | 230 kts | 236° |
| 2026-05-05 14:59 | 40.66366 | 9.34289 | 6136 ft | 226 kts | 236° |
| 2026-05-05 14:59 | 40.65464 | 9.32582 | 6116 ft | 228 kts | 236° |
| 2026-05-05 14:59 | 40.64588 | 9.30921 | 6102 ft | 212 kts | 236° |
| 2026-05-05 15:00 | 40.63779 | 9.29387 | 6076 ft | 196 kts | 236° |
| 2026-05-05 15:00 | 40.63273 | 9.28427 | 6065 ft | 190 kts | 236° |
| 2026-05-05 15:00 | 40.62895 | 9.26255 | 6053 ft | 191 kts | 280° |
| 2026-05-05 15:00 | 40.63688 | 9.24847 | 6088 ft | 199 kts | 319° |
| 2026-05-05 15:01 | 40.64944 | 9.24056 | 6113 ft | 201 kts | 335° |
| 2026-05-05 15:01 | 40.66289 | 9.23514 | 5967 ft | 204 kts | 342° |
| 2026-05-05 15:01 | 40.67676 | 9.23192 | 5697 ft | 205 kts | 349° |
| 2026-05-05 15:01 | 40.69092 | 9.23075 | 5448 ft | 203 kts | 355° |
| 2026-05-05 15:02 | 40.70503 | 9.23054 | 5227 ft | 203 kts | 357° |
| 2026-05-05 15:02 | 40.71913 | 9.23071 | 5015 ft | 203 kts | 358° |
| 2026-05-05 15:02 | 40.73328 | 9.23095 | 4820 ft | 203 kts | 358° |
| 2026-05-05 15:02 | 40.74703 | 9.23544 | 4559 ft | 207 kts | 27° |
| 2026-05-05 15:03 | 40.75763 | 9.24803 | 4460 ft | 205 kts | 48° |
| 2026-05-05 15:03 | 40.76636 | 9.26311 | 4277 ft | 207 kts | 55° |
| 2026-05-05 15:03 | 40.77436 | 9.27883 | 4030 ft | 206 kts | 58° |
| 2026-05-05 15:03 | 40.78212 | 9.29443 | 3782 ft | 205 kts | 58° |
| 2026-05-05 15:04 | 40.79000 | 9.31009 | 3532 ft | 204 kts | 58° |
| 2026-05-05 15:04 | 40.79797 | 9.32567 | 3272 ft | 204 kts | 57° |
| 2026-05-05 15:04 | 40.80599 | 9.34105 | 3014 ft | 203 kts | 57° |
| 2026-05-05 15:04 | 40.81131 | 9.35118 | 2869 ft | 199 kts | 57° |
| 2026-05-05 15:05 | 40.82888 | 9.38451 | 2268 ft | 185 kts | 56° |
| 2026-05-05 15:05 | 40.83613 | 9.39829 | 2007 ft | 180 kts | 56° |
| 2026-05-05 15:05 | 40.84091 | 9.40741 | 1833 ft | 177 kts | 56° |
| 2026-05-05 15:06 | 40.84772 | 9.42040 | 1612 ft | 170 kts | 56° |
| 2026-05-05 15:06 | 40.85432 | 9.43303 | 1386 ft | 164 kts | 55° |
| 2026-05-05 15:06 | 40.86065 | 9.44511 | 1187 ft | 154 kts | 54° |
| 2026-05-05 15:06 | 40.86665 | 9.45658 | 995 ft | 150 kts | 54° |
| 2026-05-05 15:07 | 40.87260 | 9.46791 | 788 ft | 149 kts | 54° |
| 2026-05-05 15:07 | 40.87850 | 9.47914 | 592 ft | 149 kts | 54° |
| 2026-05-05 15:07 | 40.88439 | 9.49038 | 404 ft | 148 kts | 54° |
| 2026-05-05 15:07 | 40.89028 | 9.50162 | 193 ft | 148 kts | 54° |
| 2026-05-05 15:08 | 40.89609 | 9.51272 | 53 ft | 143 kts | 54° |
| 2026-05-05 15:08 | 40.90056 | 9.52121 | 49 ft | 76 kts | 55° |
| 2026-05-05 15:08 | 40.90230 | 9.52460 | 49 ft | 15 kts | 55° |
| 2026-05-05 15:08 | 40.90288 | 9.52570 | 49 ft | 20 kts | 53° |
| 2026-05-05 15:09 | 40.90382 | 9.52675 | 49 ft | 15 kts | 18° |
| 2026-05-05 15:09 | 40.90449 | 9.52614 | 49 ft | 12 kts | 285° |
| 2026-05-05 15:09 | 40.90438 | 9.52503 | 49 ft | 14 kts | 241° |
| 2026-05-05 15:09 | 40.90378 | 9.52379 | 49 ft | 18 kts | 233° |
| 2026-05-05 15:10 | 40.90308 | 9.52247 | 49 ft | 18 kts | 237° |
| 2026-05-05 15:10 | 40.90246 | 9.52121 | 49 ft | 18 kts | 237° |
| 2026-05-05 15:10 | 40.90187 | 9.52003 | 49 ft | 15 kts | 236° |
| 2026-05-05 15:10 | 40.90155 | 9.51907 | 49 ft | 10 kts | 289° |
| 2026-05-05 15:11 | 40.90178 | 9.51817 | 49 ft | 12 kts | 253° |
| 2026-05-05 15:11 | 40.90130 | 9.51711 | 49 ft | 16 kts | 237° |
| 2026-05-05 15:11 | 40.90097 | 9.51606 | 49 ft | 11 kts | 306° |
| 2026-05-05 15:11 | 40.90130 | 9.51557 | 49 ft | 7 kts | 324° |
| 2026-05-05 15:12 | 40.90155 | 9.51534 | 49 ft | 2 kts | 326° |
| 2026-05-05 15:12 | 40.90167 | 9.51523 | 49 ft | 0 kts | 325° |